Time;durP1;ratioP1;P1;durP2;ratioP2;P2;SDS_P1;SDS_P2;PMS_P1;PMS_P2;Temp;Humidity;BMP_temperature;BMP_pressure;BME280_temperature;BME280_humidity;BME280_pressure;Samples;Min_cycle;Max_cycle;Signal;HPM_P1;HPM_P2
2023/06/10 00:02:10;;;;;;;8.40;7.60;;;23.40;98.90;;;;;;5054641;28;20075;-87
2023/06/10 00:04:36;;;;;;;12.73;7.53;;;23.50;99.00;;;;;;5053940;28;20021;-87
2023/06/10 00:07:08;;;;;;;8.75;7.90;;;22.70;99.00;;;;;;5054755;28;20124;-87
2023/06/10 00:09:37;;;;;;;8.63;7.85;;;22.80;99.10;;;;;;5054232;28;20104;-87
2023/06/10 00:12:09;;;;;;;12.00;8.03;;;22.70;99.10;;;;;;5053261;28;20033;-86
2023/06/10 00:14:37;;;;;;;9.52;8.65;;;22.60;99.40;;;;;;5054804;28;20078;-86
2023/06/10 00:17:03;;;;;;;10.10;8.32;;;22.90;99.80;;;;;;5054495;28;20033;-87
2023/06/10 00:19:31;;;;;;;9.43;8.35;;;22.50;99.80;;;;;;5053768;28;20025;-87
2023/06/10 00:21:57;;;;;;;12.07;9.05;;;22.50;99.80;;;;;;5054023;28;20490;-87
2023/06/10 00:24:23;;;;;;;10.27;9.10;;;22.40;99.80;;;;;;5054301;28;20025;-87
2023/06/10 00:26:49;;;;;;;10.05;9.20;;;22.40;99.60;;;;;;5053565;28;20037;-87
2023/06/10 00:29:15;;;;;;;9.23;8.43;;;22.40;99.60;;;;;;5053841;28;20756;-86
2023/06/10 00:31:40;;;;;;;10.98;8.18;;;22.40;99.50;;;;;;5053537;28;20536;-86
2023/06/10 00:34:07;;;;;;;16.88;8.90;;;22.30;99.50;;;;;;5055435;28;20013;-86
2023/06/10 00:36:33;;;;;;;10.07;8.63;;;22.30;99.40;;;;;;5060874;28;20036;-86
2023/06/10 00:38:58;;;;;;;11.25;8.50;;;22.40;99.40;;;;;;5055736;28;20032;-86
2023/06/10 00:41:26;;;;;;;14.50;9.23;;;22.30;99.40;;;;;;5054361;28;20079;-87
2023/06/10 00:43:52;;;;;;;12.93;8.65;;;22.30;99.40;;;;;;5054001;28;20055;-86
2023/06/10 00:46:18;;;;;;;10.23;9.30;;;22.10;99.40;;;;;;5043883;28;20037;-87
2023/06/10 00:48:44;;;;;;;10.05;9.07;;;22.70;99.60;;;;;;5033826;28;20028;-87
2023/06/10 00:51:10;;;;;;;9.90;8.90;;;22.00;99.50;;;;;;5033650;28;20021;-87
2023/06/10 00:53:41;;;;;;;15.05;8.93;;;22.00;99.50;;;;;;5033101;28;20473;-87
2023/06/10 00:56:07;;;;;;;;;;;21.90;99.50;;;;;;5034116;28;20033;-86
2023/06/10 00:58:33;;;;;;;9.27;8.43;;;22.00;99.50;;;;;;5033131;28;20007;-87
2023/06/10 01:00:58;;;;;;;10.93;9.02;;;22.00;99.50;;;;;;5032879;28;20109;-86
2023/06/10 01:03:24;;;;;;;12.48;9.38;;;22.00;99.50;;;;;;5033960;28;20028;-86
2023/06/10 01:06:10;;;;;;;11.63;9.05;;;21.80;99.50;;;;;;5033239;28;20041;-87
2023/06/10 01:09:02;;;;;;;11.48;8.27;;;21.80;99.50;;;;;;5022341;28;20030;-87
2023/06/10 01:11:34;;;;;;;9.70;8.68;;;21.90;99.60;;;;;;5033728;28;20025;-87
2023/06/10 01:14:01;;;;;;;10.00;9.00;;;21.80;99.60;;;;;;5031875;28;20040;-87
2023/06/10 01:16:28;;;;;;;9.27;8.23;;;21.80;99.60;;;;;;5033496;28;20030;-87
2023/06/10 01:18:54;;;;;;;10.13;8.40;;;22.30;99.70;;;;;;5033112;28;20501;-87
2023/06/10 01:21:24;;;;;;;9.40;8.60;;;21.80;99.60;;;;;;5032994;28;20029;-87
2023/06/10 01:23:59;;;;;;;9.07;7.85;;;23.10;99.90;;;;;;5033098;28;20025;-87
2023/06/10 01:26:34;;;;;;;11.73;8.63;;;22.20;99.90;;;;;;5033184;28;20424;-87
2023/06/10 01:29:20;;;;;;;9.32;7.85;;;21.70;99.80;;;;;;5033964;28;20083;-87
2023/06/10 01:32:01;;;;;;;9.20;8.30;;;21.70;99.80;;;;;;5044806;28;20037;-87
2023/06/10 01:34:27;;;;;;;9.23;8.30;;;21.80;99.80;;;;;;5034312;28;20025;-87
2023/06/10 01:36:55;;;;;;;11.20;8.65;;;21.80;99.80;;;;;;5032815;28;20407;-87
2023/06/10 01:39:24;;;;;;;10.57;9.10;;;22.30;99.90;;;;;;5033007;28;20088;-87
2023/06/10 01:41:50;;;;;;;8.80;8.10;;;21.70;99.80;;;;;;5031592;28;20048;-86
2023/06/10 01:44:21;;;;;;;9.80;8.80;;;21.70;99.90;;;;;;5030964;28;20040;-87
2023/06/10 01:46:46;;;;;;;11.77;8.52;;;21.60;99.90;;;;;;5030530;28;20037;-87
2023/06/10 01:49:13;;;;;;;8.52;7.82;;;21.60;99.90;;;;;;5031548;28;20461;-87
2023/06/10 01:51:39;;;;;;;9.73;8.88;;;21.60;99.90;;;;;;5032834;28;20021;-88
2023/06/10 01:54:06;;;;;;;9.32;8.45;;;21.60;99.90;;;;;;5033133;28;20477;-87
2023/06/10 01:56:31;;;;;;;9.45;8.55;;;21.50;99.90;;;;;;5032454;28;20029;-87
2023/06/10 01:58:59;;;;;;;9.65;7.90;;;21.60;99.90;;;;;;5031991;28;20031;-87
2023/06/10 02:01:25;;;;;;;9.50;8.55;;;21.60;99.90;;;;;;5032615;28;20063;-86
2023/06/10 02:03:51;;;;;;;9.80;8.02;;;21.60;99.90;;;;;;5032108;28;20025;-87
2023/06/10 02:06:17;;;;;;;9.05;8.05;;;21.70;99.90;;;;;;5032260;28;20122;-87
2023/06/10 02:08:42;;;;;;;9.48;8.38;;;21.50;99.90;;;;;;5033028;28;20051;-88
2023/06/10 02:11:08;;;;;;;9.13;7.95;;;21.60;99.90;;;;;;5032323;28;20517;-87
2023/06/10 02:13:34;;;;;;;10.43;8.07;;;21.50;99.90;;;;;;5031960;28;20026;-87
2023/06/10 02:16:00;;;;;;;19.95;8.13;;;21.50;99.90;;;;;;5032461;28;20036;-87
2023/06/10 02:18:27;;;;;;;11.68;8.50;;;21.50;99.90;;;;;;5032213;28;20107;-87
2023/06/10 02:20:53;;;;;;;9.10;7.80;;;21.90;99.90;;;;;;5032653;28;20473;-86
2023/06/10 02:23:19;;;;;;;9.15;8.35;;;21.50;99.90;;;;;;5033453;28;20048;-87
2023/06/10 02:25:45;;;;;;;9.93;7.75;;;21.60;99.90;;;;;;5046353;28;20088;-87
2023/06/10 02:28:10;;;;;;;9.73;8.30;;;21.40;99.80;;;;;;5035770;28;20037;-87
2023/06/10 02:30:40;;;;;;;13.50;8.10;;;21.40;99.80;;;;;;5033345;28;20025;-87
2023/06/10 02:33:09;;;;;;;10.63;7.80;;;21.40;99.80;;;;;;5036072;28;20025;-87
2023/06/10 02:35:36;;;;;;;10.30;7.85;;;21.90;99.90;;;;;;5036264;28;20029;-87
2023/06/10 02:38:07;;;;;;;8.70;7.90;;;21.80;99.90;;;;;;5032337;28;20038;-87
2023/06/10 02:40:33;;;;;;;9.15;7.95;;;22.20;99.90;;;;;;5035680;28;20508;-87
2023/06/10 02:42:58;;;;;;;8.10;7.30;;;21.20;99.70;;;;;;5035479;28;20030;-88
2023/06/10 02:45:25;;;;;;;8.68;7.85;;;21.80;99.90;;;;;;5035403;28;20090;-87
2023/06/10 02:47:50;;;;;;;10.70;7.68;;;21.10;99.70;;;;;;5035737;28;20053;-87
2023/06/10 02:50:25;;;;;;;10.05;7.43;;;21.70;99.90;;;;;;5036484;28;20466;-87
2023/06/10 02:52:50;;;;;;;8.60;7.95;;;21.10;99.50;;;;;;5035412;28;20090;-87
2023/06/10 02:55:16;;;;;;;11.18;7.03;;;21.40;99.60;;;;;;5038003;28;20097;-87
2023/06/10 02:57:41;;;;;;;8.68;7.43;;;21.10;99.30;;;;;;5035493;28;20030;-87
2023/06/10 03:00:10;;;;;;;16.92;7.20;;;21.20;99.40;;;;;;5035026;28;20112;-87
2023/06/10 03:02:38;;;;;;;8.27;7.30;;;21.00;99.30;;;;;;5035947;28;20052;-87
2023/06/10 03:05:05;;;;;;;13.40;8.15;;;21.00;99.20;;;;;;5035785;28;20025;-86
2023/06/10 03:07:31;;;;;;;8.68;7.43;;;21.00;99.20;;;;;;5035106;28;20046;-87
2023/06/10 03:09:57;;;;;;;8.60;6.82;;;21.60;99.30;;;;;;5035740;28;20025;-87
2023/06/10 03:12:22;;;;;;;7.70;6.93;;;20.90;99.20;;;;;;5035355;28;20388;-86
2023/06/10 03:14:48;;;;;;;8.25;7.28;;;20.80;99.10;;;;;;5034807;28;20389;-86
2023/06/10 03:17:13;;;;;;;8.82;7.65;;;20.80;99.10;;;;;;5034762;28;20060;-86
2023/06/10 03:19:39;;;;;;;8.55;6.82;;;20.70;99.00;;;;;;5036239;28;20029;-87
2023/06/10 03:22:09;;;;;;;8.88;6.82;;;20.60;99.10;;;;;;5035346;28;20370;-87
2023/06/10 03:24:35;;;;;;;14.98;7.72;;;20.60;99.40;;;;;;5035352;28;20100;-86
2023/06/10 03:27:02;;;;;;;7.78;7.07;;;20.60;99.20;;;;;;5034767;28;20109;-86
2023/06/10 03:29:27;;;;;;;7.63;6.57;;;20.50;99.10;;;;;;5032572;28;20100;-87
2023/06/10 03:31:53;;;;;;;7.72;6.88;;;20.50;99.10;;;;;;5049348;28;20523;-86
2023/06/10 03:34:18;;;;;;;8.05;7.32;;;20.60;99.30;;;;;;5055099;28;20049;-86
2023/06/10 03:36:44;;;;;;;12.52;7.63;;;20.40;99.20;;;;;;5054603;28;20028;-89
2023/06/10 03:39:10;;;;;;;7.63;6.47;;;20.40;99.20;;;;;;5055481;28;20025;-89
2023/06/10 03:41:36;;;;;;;10.57;6.85;;;20.40;99.30;;;;;;5049367;28;21117;-87
2023/06/10 03:44:01;;;;;;;8.23;6.82;;;20.40;99.20;;;;;;5052973;28;20024;-85
2023/06/10 03:46:27;;;;;;;7.93;6.72;;;20.40;99.30;;;;;;5047347;28;20376;-87
2023/06/10 03:49:02;;;;;;;8.70;6.95;;;20.60;99.30;;;;;;5053680;28;20026;-88
2023/06/10 03:51:28;;;;;;;14.15;7.70;;;21.10;99.70;;;;;;5054364;28;20107;-85
2023/06/10 03:54:00;;;;;;;7.10;6.50;;;20.70;99.50;;;;;;5046584;28;20056;-87
2023/06/10 03:56:26;;;;;;;9.77;6.50;;;20.30;99.40;;;;;;5052714;28;20029;-87
2023/06/10 03:58:51;;;;;;;8.23;6.70;;;20.20;99.50;;;;;;5053552;28;20484;-87
2023/06/10 04:01:18;;;;;;;11.65;7.55;;;20.20;99.60;;;;;;5054881;28;20440;-87
2023/06/10 04:03:43;;;;;;;6.95;6.28;;;20.20;99.60;;;;;;5054069;28;20468;-87
2023/06/10 04:06:09;;;;;;;7.55;6.57;;;20.30;99.60;;;;;;5054658;28;20079;-87
2023/06/10 04:08:35;;;;;;;10.63;6.70;;;20.30;99.70;;;;;;5053544;28;20052;-86
2023/06/10 04:11:02;;;;;;;7.40;6.65;;;20.20;99.70;;;;;;5052472;28;20025;-87
2023/06/10 04:13:27;;;;;;;8.52;7.05;;;20.20;99.70;;;;;;5052461;28;20041;-87
2023/06/10 04:15:54;;;;;;;10.55;7.18;;;20.40;99.80;;;;;;5051515;28;20025;-86
2023/06/10 04:18:20;;;;;;;7.70;7.00;;;20.30;99.80;;;;;;5049958;28;20090;-87
2023/06/10 04:20:46;;;;;;;11.05;6.90;;;19.90;99.90;;;;;;5051657;28;20021;-87
2023/06/10 04:23:11;;;;;;;8.27;7.03;;;20.30;99.80;;;;;;5052541;28;20030;-87
2023/06/10 04:25:37;;;;;;;8.15;6.10;;;20.30;99.80;;;;;;5051672;28;20024;-87
2023/06/10 04:28:02;;;;;;;7.72;6.50;;;20.20;99.90;;;;;;5052482;28;20040;-86
2023/06/10 04:30:28;;;;;;;7.30;6.28;;;20.30;99.90;;;;;;5054245;28;20374;-86
2023/06/10 04:32:54;;;;;;;8.00;6.80;;;20.30;99.90;;;;;;5053125;28;20037;-85
2023/06/10 04:35:19;;;;;;;9.23;6.50;;;20.30;99.90;;;;;;5047584;28;20031;-86
2023/06/10 04:37:45;;;;;;;11.15;6.75;;;20.30;99.90;;;;;;5045217;28;20016;-88
2023/06/10 04:40:11;;;;;;;11.63;7.32;;;20.30;99.90;;;;;;5038477;28;20482;-88
2023/06/10 04:42:37;;;;;;;7.47;6.75;;;20.30;99.90;;;;;;5036603;28;20048;-87
2023/06/10 04:45:03;;;;;;;9.98;6.82;;;20.50;99.90;;;;;;5045762;28;20033;-88
2023/06/10 04:47:32;;;;;;;8.27;6.65;;;20.30;99.90;;;;;;5042431;28;20562;-88
2023/06/10 04:49:59;;;;;;;9.27;7.05;;;20.40;99.90;;;;;;5047942;28;20029;-88
2023/06/10 04:52:34;;;;;;;7.40;6.35;;;20.30;99.90;;;;;;5037318;28;20038;-88
2023/06/10 04:54:59;;;;;;;17.40;6.60;;;20.40;99.90;;;;;;5046288;28;20017;-89
2023/06/10 04:57:25;;;;;;;12.93;7.28;;;21.10;99.90;;;;;;5047592;28;20136;-89
2023/06/10 05:00:06;;;;;;;11.38;6.40;;;20.30;99.90;;;;;;5043349;28;20099;-85
2023/06/10 05:02:31;;;;;;;9.73;6.57;;;20.40;99.90;;;;;;5036110;28;20116;-85
2023/06/10 05:04:57;;;;;;;11.20;6.40;;;21.10;99.90;;;;;;5042816;28;20111;-83
2023/06/10 05:07:23;;;;;;;7.25;6.55;;;21.10;99.90;;;;;;5037594;28;20080;-83
2023/06/10 05:09:49;;;;;;;9.80;6.72;;;20.30;99.90;;;;;;5048989;28;20753;-88
2023/06/10 05:12:15;;;;;;;9.93;6.43;;;20.40;99.90;;;;;;5045751;28;20021;-87
2023/06/10 05:14:41;;;;;;;10.27;7.43;;;20.40;99.90;;;;;;5041749;28;20026;-88
2023/06/10 05:17:06;;;;;;;10.38;6.93;;;20.30;99.90;;;;;;5044771;28;20021;-88
2023/06/10 05:19:32;;;;;;;9.02;6.55;;;20.40;99.90;;;;;;5033397;28;20025;-88
2023/06/10 05:21:58;;;;;;;8.90;6.63;;;20.40;99.90;;;;;;5035742;28;20021;-88
2023/06/10 05:24:23;;;;;;;10.88;7.00;;;20.40;99.90;;;;;;5042312;28;20025;-87
2023/06/10 05:26:49;;;;;;;7.15;6.43;;;20.70;99.90;;;;;;5049738;28;20144;-88
2023/06/10 05:29:18;;;;;;;10.93;6.45;;;20.40;99.90;;;;;;5034127;28;20095;-88
2023/06/10 05:31:43;;;;;;;10.75;6.47;;;20.40;99.90;;;;;;5044743;28;20089;-87
2023/06/10 05:34:09;;;;;;;10.57;6.95;;;20.40;99.90;;;;;;5047005;28;20025;-87
2023/06/10 05:36:34;;;;;;;9.70;6.35;;;20.40;99.90;;;;;;5047828;28;20032;-88
2023/06/10 05:39:00;;;;;;;7.25;6.40;;;21.00;99.90;;;;;;5040585;28;20099;-89
2023/06/10 05:41:26;;;;;;;9.73;6.38;;;20.40;99.90;;;;;;5048953;28;20037;-88
2023/06/10 05:43:51;;;;;;;9.02;6.93;;;20.50;99.90;;;;;;5049513;28;20029;-88
2023/06/10 05:46:17;;;;;;;9.07;7.00;;;20.50;99.90;;;;;;5040820;28;20439;-87
2023/06/10 05:48:42;;;;;;;7.63;6.93;;;20.50;99.90;;;;;;5051715;28;20021;-87
2023/06/10 05:51:08;;;;;;;10.05;6.47;;;20.90;99.90;;;;;;5052200;28;20029;-87
2023/06/10 05:53:33;;;;;;;10.27;6.95;;;20.50;99.90;;;;;;5052915;28;20029;-87
2023/06/10 05:55:59;;;;;;;7.13;6.43;;;20.50;99.90;;;;;;5051810;28;20074;-87
2023/06/10 05:58:25;;;;;;;9.98;6.65;;;20.60;99.90;;;;;;5052628;28;20071;-88
2023/06/10 06:00:50;;;;;;;11.05;6.65;;;20.50;99.90;;;;;;5052813;28;20167;-88
2023/06/10 06:03:16;;;;;;;11.63;6.32;;;20.70;99.90;;;;;;5052728;28;20047;-89
2023/06/10 06:05:42;;;;;;;14.15;6.70;;;20.60;99.90;;;;;;5052131;28;20489;-87
2023/06/10 06:08:09;;;;;;;10.85;6.63;;;20.70;99.90;;;;;;5052195;28;20033;-87
2023/06/10 06:10:34;;;;;;;11.32;7.18;;;20.70;99.90;;;;;;5051712;28;20025;-87
2023/06/10 06:13:00;;;;;;;11.02;6.32;;;20.70;99.90;;;;;;5051994;28;20025;-88
2023/06/10 06:15:26;;;;;;;9.82;6.80;;;20.80;99.90;;;;;;5052116;28;20024;-87
2023/06/10 06:17:55;;;;;;;7.20;6.22;;;21.10;99.90;;;;;;5051348;28;20419;-87
2023/06/10 06:20:21;;;;;;;10.38;7.13;;;20.80;99.90;;;;;;5051454;28;20029;-86
2023/06/10 06:22:47;;;;;;;11.13;6.38;;;20.80;99.90;;;;;;5051959;28;20028;-87
2023/06/10 06:25:13;;;;;;;9.25;6.47;;;20.90;99.90;;;;;;5051578;28;20025;-87
2023/06/10 06:27:38;;;;;;;13.48;6.57;;;20.90;99.90;;;;;;5051622;28;20075;-87
2023/06/10 06:30:05;;;;;;;15.23;6.20;;;21.00;99.90;;;;;;5052018;28;20039;-87
2023/06/10 06:32:30;;;;;;;8.30;6.68;;;21.00;99.90;;;;;;5051048;28;20373;-87
2023/06/10 06:34:56;;;;;;;10.45;6.45;;;21.20;99.90;;;;;;5049891;28;20017;-87
2023/06/10 06:37:25;;;;;;;9.70;7.05;;;21.10;99.90;;;;;;5041101;28;20053;-88
2023/06/10 06:39:52;;;;;;;9.57;6.70;;;21.10;99.90;;;;;;5041384;28;20028;-86
2023/06/10 06:42:18;;;;;;;7.28;6.53;;;21.10;99.90;;;;;;5042409;28;20124;-86
2023/06/10 06:44:44;;;;;;;8.88;6.78;;;21.80;99.90;;;;;;5038972;28;20204;-87
2023/06/10 06:47:10;;;;;;;11.63;6.63;;;21.20;99.90;;;;;;5041533;28;20083;-87
2023/06/10 06:49:35;;;;;;;7.22;6.55;;;21.30;99.90;;;;;;5041902;28;20432;-87
2023/06/10 06:52:01;;;;;;;8.13;6.60;;;21.20;99.90;;;;;;5039722;28;20368;-88
2023/06/10 06:54:27;;;;;;;6.20;5.70;;;21.30;99.90;;;;;;5042308;28;20372;-88
2023/06/10 06:56:53;;;;;;;9.00;6.15;;;21.90;99.90;;;;;;5041991;28;20013;-88
2023/06/10 06:59:19;;;;;;;9.63;6.75;;;21.50;99.90;;;;;;5042962;28;20026;-89
2023/06/10 07:01:46;;;;;;;7.55;6.82;;;21.40;99.90;;;;;;5037291;28;20438;-89
2023/06/10 07:04:11;;;;;;;7.60;5.97;;;21.40;99.90;;;;;;5035840;28;20115;-88
2023/06/10 07:06:38;;;;;;;9.15;6.25;;;21.80;99.90;;;;;;5040523;28;20401;-82
2023/06/10 07:09:06;;;;;;;13.00;6.85;;;22.00;99.90;;;;;;5040617;28;20024;-84
2023/06/10 07:11:32;;;;;;;14.15;6.40;;;21.60;99.90;;;;;;5042537;28;20116;-84
2023/06/10 07:14:10;;;;;;;9.60;6.60;;;22.40;99.90;;;;;;5041337;28;20434;-84
2023/06/10 07:16:35;;;;;;;11.55;6.88;;;21.80;99.90;;;;;;5043242;28;20883;-84
2023/06/10 07:19:01;;;;;;;10.18;6.57;;;21.80;99.90;;;;;;5055237;28;20024;-84
2023/06/10 07:21:28;;;;;;;10.45;6.13;;;21.90;99.90;;;;;;5054342;28;20021;-84
2023/06/10 07:23:54;;;;;;;10.07;6.05;;;22.10;99.90;;;;;;5055184;28;20045;-84
2023/06/10 07:26:22;;;;;;;7.97;6.45;;;21.80;99.90;;;;;;5055527;28;20040;-84
2023/06/10 07:28:47;;;;;;;8.25;6.47;;;21.90;99.90;;;;;;5053599;28;20029;-84
2023/06/10 07:31:13;;;;;;;8.98;6.15;;;22.20;99.90;;;;;;5055237;28;20017;-84
2023/06/10 07:33:43;;;;;;;16.13;6.70;;;22.10;99.90;;;;;;5054359;28;20111;-85
2023/06/10 07:36:09;;;;;;;9.38;5.85;;;22.80;99.90;;;;;;5055211;28;20067;-83
2023/06/10 07:38:35;;;;;;;12.82;6.00;;;22.10;99.90;;;;;;5055154;28;20504;-83
2023/06/10 07:41:00;;;;;;;7.72;6.10;;;22.10;99.90;;;;;;5054178;28;20456;-84
2023/06/10 07:43:26;;;;;;;13.32;6.43;;;22.20;99.90;;;;;;5054704;28;20108;-83
2023/06/10 07:45:52;;;;;;;9.43;6.25;;;22.30;99.90;;;;;;5054666;28;20028;-84
2023/06/10 07:48:17;;;;;;;10.52;6.90;;;22.30;99.90;;;;;;5039105;28;20041;-84
2023/06/10 07:50:43;;;;;;;8.15;6.25;;;22.50;99.70;;;;;;5034460;28;20022;-83
2023/06/10 07:53:08;;;;;;;11.23;5.82;;;22.50;99.30;;;;;;5034160;28;20034;-81
2023/06/10 07:55:34;;;;;;;8.82;5.78;;;22.60;99.60;;;;;;5053873;28;20053;-84
2023/06/10 07:58:00;;;;;;;6.80;5.97;;;22.70;99.70;;;;;;5053813;28;20366;-83
2023/06/10 08:00:25;;;;;;;7.28;5.85;;;22.70;99.90;;;;;;5053571;28;20037;-84
2023/06/10 08:02:51;;;;;;;7.75;5.72;;;22.70;99.80;;;;;;5054043;28;20021;-83
2023/06/10 08:05:17;;;;;;;11.90;5.40;;;23.00;99.80;;;;;;5054584;28;20048;-83
2023/06/10 08:07:43;;;;;;;8.10;5.68;;;22.70;99.70;;;;;;5054138;28;20064;-83
2023/06/10 08:10:09;;;;;;;6.82;5.78;;;22.70;99.70;;;;;;5050496;28;20354;-83
2023/06/10 08:12:35;;;;;;;7.93;5.88;;;22.70;99.80;;;;;;5053104;28;20028;-83
2023/06/10 08:15:03;;;;;;;9.80;5.82;;;22.70;99.90;;;;;;5052213;28;20051;-84
2023/06/10 08:17:30;;;;;;;8.27;6.15;;;23.00;99.50;;;;;;5052579;28;20064;-84
2023/06/10 08:19:55;;;;;;;6.95;6.13;;;22.80;99.40;;;;;;5052588;28;20017;-84
2023/06/10 08:22:21;;;;;;;9.68;6.10;;;23.00;99.10;;;;;;5052589;28;20587;-83
2023/06/10 08:24:46;;;;;;;6.65;6.03;;;23.10;99.00;;;;;;5051624;28;20090;-83
2023/06/10 08:27:12;;;;;;;10.82;6.35;;;23.10;99.00;;;;;;5052398;28;20435;-84
2023/06/10 08:29:38;;;;;;;5.80;5.25;;;23.20;99.30;;;;;;5051692;28;20060;-85
2023/06/10 08:32:04;;;;;;;5.97;5.25;;;23.50;99.50;;;;;;5051950;28;20028;-86
2023/06/10 08:34:30;;;;;;;12.43;6.20;;;23.20;99.00;;;;;;5053941;28;20024;-83
2023/06/10 08:36:55;;;;;;;6.10;5.20;;;23.20;99.00;;;;;;5053170;28;20384;-83
2023/06/10 08:39:22;;;;;;;7.50;5.88;;;23.30;99.00;;;;;;5053998;28;20387;-83
2023/06/10 08:42:00;;;;;;;8.23;6.22;;;23.30;98.90;;;;;;5053476;28;20021;-83
2023/06/10 08:44:28;;;;;;;9.38;5.88;;;23.20;98.90;;;;;;5053389;28;20033;-83
2023/06/10 08:46:58;;;;;;;10.93;6.05;;;23.20;98.90;;;;;;5053328;28;20033;-85
2023/06/10 08:49:25;;;;;;;8.55;5.80;;;23.30;99.00;;;;;;5053845;28;20495;-83
2023/06/10 08:51:55;;;;;;;11.10;6.45;;;23.50;99.10;;;;;;5052704;28;20025;-83
2023/06/10 08:54:24;;;;;;;11.00;5.85;;;23.40;98.60;;;;;;5052447;28;20107;-82
2023/06/10 08:56:51;;;;;;;7.93;6.13;;;23.40;98.80;;;;;;5052089;28;20029;-86
2023/06/10 08:59:17;;;;;;;7.50;5.45;;;23.50;98.60;;;;;;5046347;28;20029;-86
2023/06/10 09:01:44;;;;;;;9.85;5.80;;;23.40;98.80;;;;;;5053464;28;20100;-89
2023/06/10 09:04:10;;;;;;;9.18;6.45;;;23.50;98.40;;;;;;5054823;28;20026;-90
2023/06/10 09:06:36;;;;;;;8.23;5.70;;;23.50;98.50;;;;;;5052819;28;20377;-89
2023/06/10 09:09:02;;;;;;;7.72;5.32;;;23.60;98.70;;;;;;5053130;28;20056;-85
2023/06/10 09:11:28;;;;;;;10.02;6.40;;;23.60;98.50;;;;;;5045156;22;20049;-86
2023/06/10 09:13:54;;;;;;;9.63;5.90;;;23.90;98.30;;;;;;5031927;28;20051;-85
2023/06/10 09:16:38;;;;;;;7.72;5.55;;;23.90;97.90;;;;;;5031873;28;20116;-85
2023/06/10 09:19:07;;;;;;;6.13;5.53;;;24.10;97.80;;;;;;5032424;28;20052;-86
2023/06/10 09:21:42;;;;;;;5.83;5.30;;;24.60;98.20;;;;;;5031462;28;20102;-86
2023/06/10 09:24:08;;;;;;;6.35;5.75;;;23.90;98.00;;;;;;5033228;28;20284;-86
2023/06/10 09:26:34;;;;;;;7.93;6.30;;;23.80;98.10;;;;;;5032738;28;20033;-86
2023/06/10 09:29:09;;;;;;;8.50;6.18;;;23.90;97.80;;;;;;5033387;28;20397;-86
2023/06/10 09:31:36;;;;;;;6.95;5.70;;;24.00;97.60;;;;;;5033500;28;20083;-87
2023/06/10 09:34:07;;;;;;;12.30;5.85;;;24.10;97.30;;;;;;5032314;28;20078;-86
2023/06/10 09:36:34;;;;;;;6.05;5.45;;;24.20;97.20;;;;;;5032851;28;20075;-86
2023/06/10 09:39:00;;;;;;;11.60;6.38;;;24.50;97.90;;;;;;5031351;28;20031;-86
2023/06/10 09:41:45;;;;;;;7.28;5.38;;;24.60;97.50;;;;;;5029833;28;20482;-86
2023/06/10 09:44:21;;;;;;;6.75;5.15;;;24.20;97.40;;;;;;5031319;28;20022;-86
2023/06/10 09:46:50;;;;;;;6.93;5.85;;;24.40;97.40;;;;;;5030876;28;20035;-86
2023/06/10 09:49:28;;;;;;;5.68;5.13;;;24.40;96.70;;;;;;5030502;28;20025;-86
2023/06/10 09:51:55;;;;;;;10.77;5.00;;;24.50;96.40;;;;;;5031173;28;20027;-87
2023/06/10 09:54:21;;;;;;;6.55;5.68;;;24.70;96.60;;;;;;5035197;28;20025;-86
2023/06/10 09:56:52;;;;;;;6.63;5.38;;;24.80;96.30;;;;;;5034577;28;20507;-86
2023/06/10 09:59:31;;;;;;;6.25;4.88;;;24.90;96.30;;;;;;5032784;28;20493;-86
2023/06/10 10:01:57;;;;;;;10.77;6.65;;;24.80;96.70;;;;;;5031952;28;20062;-86
2023/06/10 10:04:25;;;;;;;6.85;5.20;;;24.80;96.30;;;;;;5033211;28;20394;-86
2023/06/10 10:06:50;;;;;;;6.78;5.10;;;24.80;96.60;;;;;;5032616;28;20021;-86
2023/06/10 10:09:16;;;;;;;9.45;5.55;;;24.80;96.30;;;;;;5031999;28;20095;-87
2023/06/10 10:11:43;;;;;;;7.28;4.75;;;24.90;95.90;;;;;;5032188;28;20046;-86
2023/06/10 10:14:09;;;;;;;9.73;5.70;;;25.00;95.90;;;;;;5032645;28;20026;-86
2023/06/10 10:16:41;;;;;;;13.85;6.22;;;24.90;95.70;;;;;;5032079;28;20032;-86
2023/06/10 10:19:23;;;;;;;5.68;4.93;;;25.20;95.50;;;;;;5032518;28;20029;-87
2023/06/10 10:21:53;;;;;;;6.97;5.10;;;25.20;95.20;;;;;;5032253;28;20060;-86
2023/06/10 10:24:23;;;;;;;5.65;5.15;;;25.20;95.70;;;;;;5031872;28;20026;-86
2023/06/10 10:26:50;;;;;;;6.57;6.03;;;25.00;95.60;;;;;;5032053;28;20132;-86
2023/06/10 10:29:31;;;;;;;7.43;5.50;;;25.20;95.60;;;;;;5032200;28;20083;-87
2023/06/10 10:32:00;;;;;;;5.85;5.35;;;25.40;95.00;;;;;;5030978;28;20060;-84
2023/06/10 10:35:05;;;;;;;5.93;5.38;;;25.60;94.70;;;;;;5028582;28;20113;-87
2023/06/10 10:37:31;;;;;;;8.85;5.75;;;25.70;94.50;;;;;;5002139;28;20030;-86
2023/06/10 10:39:58;;;;;;;6.07;5.40;;;25.70;94.50;;;;;;5017438;28;20064;-89
2023/06/10 10:42:24;;;;;;;10.57;4.90;;;25.90;94.30;;;;;;5026239;28;20034;-89
2023/06/10 10:44:51;;;;;;;12.60;5.40;;;25.90;93.70;;;;;;5029523;28;20028;-89
2023/06/10 10:47:21;;;;;;;8.30;4.72;;;26.00;93.40;;;;;;5030030;28;20771;-89
2023/06/10 10:49:51;;;;;;;8.50;5.28;;;26.00;93.80;;;;;;5030040;28;20421;-89
2023/06/10 10:52:17;;;;;;;5.22;4.75;;;25.80;94.30;;;;;;5033441;28;20028;-84
2023/06/10 10:54:46;;;;;;;6.55;5.38;;;25.70;94.00;;;;;;5032796;28;20034;-89
2023/06/10 10:57:16;;;;;;;7.13;5.13;;;25.80;93.80;;;;;;5032354;28;20029;-82
2023/06/10 10:59:56;;;;;;;6.53;5.15;;;25.70;93.20;;;;;;5030745;28;20389;-85
2023/06/10 11:02:43;;;;;;;6.13;4.68;;;25.70;93.80;;;;;;5031759;28;20033;-81
2023/06/10 11:05:15;;;;;;;9.07;5.43;;;25.70;94.10;;;;;;5029837;28;20033;-85
2023/06/10 11:07:52;;;;;;;9.05;4.95;;;25.50;93.20;;;;;;5032594;28;20120;-85
2023/06/10 11:10:28;;;;;;;11.65;5.43;;;25.60;93.10;;;;;;5063252;22;20060;-87
2023/06/10 11:13:15;;;;;;;5.28;4.78;;;25.70;92.90;;;;;;5074325;28;20110;-89
2023/06/10 11:16:04;;;;;;;8.88;5.75;;;25.70;92.90;;;;;;5052463;28;20025;-89
2023/06/10 11:18:54;;;;;;;12.50;5.28;;;25.90;93.00;;;;;;5059921;28;20083;-89
2023/06/10 11:22:09;;;;;;;9.13;4.70;;;26.00;93.50;;;;;;5056573;28;20032;-88
2023/06/10 11:24:35;;;;;;;5.47;4.82;;;26.10;92.50;;;;;;5047647;28;20025;-89
2023/06/10 11:27:24;;;;;;;6.70;5.30;;;26.50;92.30;;;;;;5054607;28;20034;-89
2023/06/10 11:30:19;;;;;;;5.45;4.93;;;26.40;92.00;;;;;;5049550;28;20120;-87
2023/06/10 11:32:51;;;;;;;7.03;5.32;;;26.50;92.00;;;;;;5054551;28;20029;-86
2023/06/10 11:35:18;;;;;;;5.45;4.93;;;26.70;91.80;;;;;;5054876;28;20500;-87
2023/06/10 11:37:43;;;;;;;7.18;5.35;;;26.50;92.00;;;;;;5052031;28;20056;-88
2023/06/10 11:40:09;;;;;;;9.90;5.47;;;26.50;92.00;;;;;;5040076;28;20029;-88
2023/06/10 11:42:40;;;;;;;7.18;5.07;;;26.80;91.60;;;;;;5052702;28;20086;-89
2023/06/10 11:45:08;;;;;;;5.93;5.07;;;27.00;90.70;;;;;;5048734;28;20461;-90
2023/06/10 11:47:33;;;;;;;8.07;5.32;;;27.00;90.90;;;;;;5053996;28;20033;-90
2023/06/10 11:49:59;;;;;;;5.18;4.78;;;27.00;90.80;;;;;;5054871;28;20098;-90
2023/06/10 11:52:39;;;;;;;7.55;5.07;;;27.50;91.30;;;;;;5055879;28;20071;-89
2023/06/10 11:55:05;;;;;;;5.60;5.05;;;27.00;90.70;;;;;;5055468;28;20040;-90
2023/06/10 11:57:35;;;;;;;5.13;4.60;;;26.90;91.00;;;;;;5055103;28;20106;-90
2023/06/10 12:00:07;;;;;;;5.47;4.57;;;26.90;91.40;;;;;;5054546;28;20491;-90
2023/06/10 12:02:33;;;;;;;5.45;4.90;;;26.80;90.60;;;;;;5054094;28;20477;-90
2023/06/10 12:05:13;;;;;;;5.68;5.18;;;27.20;90.70;;;;;;5054699;28;20032;-90
2023/06/10 12:07:38;;;;;;;12.85;5.55;;;27.00;90.40;;;;;;5055513;28;20033;-90
2023/06/10 12:10:04;;;;;;;5.25;4.75;;;27.10;90.70;;;;;;5054557;28;20060;-90
2023/06/10 12:12:30;;;;;;;6.05;4.85;;;27.30;91.30;;;;;;5055133;28;20025;-90
2023/06/10 12:15:02;;;;;;;6.93;4.93;;;27.10;90.40;;;;;;5054738;28;20247;-89
2023/06/10 12:17:31;;;;;;;6.07;5.20;;;27.20;90.90;;;;;;5055066;28;20091;-90
2023/06/10 12:19:57;;;;;;;5.70;5.00;;;27.30;90.80;;;;;;5056163;28;20040;-90
2023/06/10 12:22:24;;;;;;;9.60;4.78;;;27.20;90.90;;;;;;5063737;28;20025;-89
2023/06/10 12:25:01;;;;;;;8.82;5.05;;;27.10;90.60;;;;;;5054441;28;20017;-87
2023/06/10 12:27:29;;;;;;;7.90;5.20;;;27.60;90.70;;;;;;5054481;28;20059;-87
2023/06/10 12:30:00;;;;;;;5.85;5.28;;;27.10;90.60;;;;;;5053496;28;20031;-87
2023/06/10 12:32:45;;;;;;;7.85;5.20;;;27.10;90.00;;;;;;5043817;28;20021;-82
2023/06/10 12:35:12;;;;;;;5.65;5.25;;;27.10;90.90;;;;;;5043805;28;20028;-82
2023/06/10 12:37:39;;;;;;;8.70;5.57;;;26.90;91.30;;;;;;5044134;28;20107;-83
2023/06/10 12:40:06;;;;;;;7.63;4.95;;;26.70;91.80;;;;;;5039195;28;20071;-84
2023/06/10 12:42:34;;;;;;;8.27;6.47;;;26.70;90.80;;;;;;5049637;22;20049;-84
2023/06/10 12:45:01;;;;;;;5.82;5.07;;;26.90;90.60;;;;;;5055440;28;20037;-85
2023/06/10 12:47:32;;;;;;;6.90;5.47;;;27.00;90.60;;;;;;5054050;28;20068;-84
2023/06/10 12:49:58;;;;;;;5.80;5.30;;;27.00;90.70;;;;;;5054240;28;20057;-84